BIKF/KEF METAR and TAF weather

Enter ICAO airport designator
Station Type Date Time Source
BIKF METAR 2018/04/20 08:30 UTC NOAA

BIKF 200830Z 24003KT 0700 R19/P1500N FG VV002 06/06 Q1007


Station Type Date Time Source
BIKF Decoded METAR 2018/04/20 08:30 UTC NOAA

Keflavikurflugvollur, Iceland (BIKF) 63-58N 022-36W 54M
Apr 20, 2018 - 04:30 AM EDT / 2018.04.20 0830 UTC
Wind: from the WSW (240 degrees) at 3 MPH (3 KT):0
Visibility: less than 1 mile:0
Sky conditions: obscured
Weather: fog
Temperature: 42 F (6 C)
Dew Point: 42 F (6 C)
Relative Humidity: 100%
Pressure (altimeter): 29.74 in. Hg (1007 hPa)
ob: BIKF 200830Z 24003KT 0700 R19/P1500N FG VV002 06/06 Q1007
cycle: 8

Station Type Date Time Source
BIKF TAF 2018/04/20 09:00 UTC NOAA

TAF BIKF 200757Z 2009/2109 12005KT 0300 FG VV002 TX09/2015Z TN04/2103Z
BECMG 2009/2011 9999 SCT015 BKN030 PROB40
TEMPO 2012/2020 5000 DZRA BR BKN010 OVC015
BECMG 2106/2109 06010KT


Example: see airport list